sensor_id;sensor_type;location;lat;lon;timestamp;P1;durP1;ratioP1;P2;durP2;ratioP2
10535;SDS011;5316;49.538;8.352;2023-08-17T00:00:02;3.00;;;2.80;;
10535;SDS011;5316;49.538;8.352;2023-08-17T00:02:33;3.07;;;2.87;;
10535;SDS011;5316;49.538;8.352;2023-08-17T00:05:02;3.20;;;2.90;;
10535;SDS011;5316;49.538;8.352;2023-08-17T00:07:31;3.60;;;3.30;;
10535;SDS011;5316;49.538;8.352;2023-08-17T00:10:01;3.20;;;3.00;;
10535;SDS011;5316;49.538;8.352;2023-08-17T00:12:30;4.20;;;3.63;;
10535;SDS011;5316;49.538;8.352;2023-08-17T00:14:57;8.17;;;3.57;;
10535;SDS011;5316;49.538;8.352;2023-08-17T00:17:26;4.07;;;3.67;;
10535;SDS011;5316;49.538;8.352;2023-08-17T00:19:56;3.63;;;3.33;;
10535;SDS011;5316;49.538;8.352;2023-08-17T00:22:26;4.50;;;3.83;;
10535;SDS011;5316;49.538;8.352;2023-08-17T00:24:53;6.23;;;3.73;;
10535;SDS011;5316;49.538;8.352;2023-08-17T00:27:20;4.10;;;3.70;;
10535;SDS011;5316;49.538;8.352;2023-08-17T00:29:47;4.47;;;4.07;;
10535;SDS011;5316;49.538;8.352;2023-08-17T00:32:14;6.20;;;4.07;;
10535;SDS011;5316;49.538;8.352;2023-08-17T00:34:41;4.77;;;4.37;;
10535;SDS011;5316;49.538;8.352;2023-08-17T00:37:08;5.07;;;4.40;;
10535;SDS011;5316;49.538;8.352;2023-08-17T00:39:36;5.23;;;4.73;;
10535;SDS011;5316;49.538;8.352;2023-08-17T00:42:03;4.43;;;4.13;;
10535;SDS011;5316;49.538;8.352;2023-08-17T00:44:33;4.30;;;4.00;;
10535;SDS011;5316;49.538;8.352;2023-08-17T00:47:00;4.40;;;4.00;;
10535;SDS011;5316;49.538;8.352;2023-08-17T00:49:26;5.90;;;4.37;;
10535;SDS011;5316;49.538;8.352;2023-08-17T00:51:53;4.23;;;4.00;;
10535;SDS011;5316;49.538;8.352;2023-08-17T00:54:23;4.30;;;4.00;;
10535;SDS011;5316;49.538;8.352;2023-08-17T00:56:53;4.80;;;4.37;;
10535;SDS011;5316;49.538;8.352;2023-08-17T00:59:20;4.57;;;4.20;;
10535;SDS011;5316;49.538;8.352;2023-08-17T01:01:47;4.77;;;4.37;;
10535;SDS011;5316;49.538;8.352;2023-08-17T01:04:16;4.43;;;4.07;;
10535;SDS011;5316;49.538;8.352;2023-08-17T01:06:43;5.03;;;4.53;;
10535;SDS011;5316;49.538;8.352;2023-08-17T01:09:10;5.23;;;4.70;;
10535;SDS011;5316;49.538;8.352;2023-08-17T01:11:37;4.87;;;4.47;;
10535;SDS011;5316;49.538;8.352;2023-08-17T01:14:14;5.47;;;4.97;;
10535;SDS011;5316;49.538;8.352;2023-08-17T01:16:50;5.03;;;4.63;;
10535;SDS011;5316;49.538;8.352;2023-08-17T01:19:24;4.87;;;4.47;;
10535;SDS011;5316;49.538;8.352;2023-08-17T01:21:54;5.00;;;4.60;;
10535;SDS011;5316;49.538;8.352;2023-08-17T01:24:27;5.80;;;5.20;;
10535;SDS011;5316;49.538;8.352;2023-08-17T01:26:54;5.70;;;5.20;;
10535;SDS011;5316;49.538;8.352;2023-08-17T01:29:23;5.93;;;5.33;;
10535;SDS011;5316;49.538;8.352;2023-08-17T01:31:52;6.53;;;5.93;;
10535;SDS011;5316;49.538;8.352;2023-08-17T01:34:24;7.67;;;5.37;;
10535;SDS011;5316;49.538;8.352;2023-08-17T01:36:53;6.07;;;5.53;;
10535;SDS011;5316;49.538;8.352;2023-08-17T01:39:26;6.40;;;5.90;;
10535;SDS011;5316;49.538;8.352;2023-08-17T01:41:58;7.10;;;6.43;;
10535;SDS011;5316;49.538;8.352;2023-08-17T01:44:26;9.47;;;7.00;;
10535;SDS011;5316;49.538;8.352;2023-08-17T01:46:53;8.63;;;7.63;;
10535;SDS011;5316;49.538;8.352;2023-08-17T01:49:20;7.27;;;6.57;;
10535;SDS011;5316;49.538;8.352;2023-08-17T01:51:47;7.80;;;7.10;;
10535;SDS011;5316;49.538;8.352;2023-08-17T01:54:14;7.70;;;6.90;;
10535;SDS011;5316;49.538;8.352;2023-08-17T01:56:42;8.00;;;7.20;;
10535;SDS011;5316;49.538;8.352;2023-08-17T01:59:09;9.03;;;7.70;;
10535;SDS011;5316;49.538;8.352;2023-08-17T02:01:36;10.13;;;7.40;;
10535;SDS011;5316;49.538;8.352;2023-08-17T02:04:03;7.80;;;6.73;;
10535;SDS011;5316;49.538;8.352;2023-08-17T02:06:30;7.67;;;6.97;;
10535;SDS011;5316;49.538;8.352;2023-08-17T02:08:59;6.80;;;6.20;;
10535;SDS011;5316;49.538;8.352;2023-08-17T02:11:26;7.60;;;6.90;;
10535;SDS011;5316;49.538;8.352;2023-08-17T02:13:54;7.07;;;6.30;;
10535;SDS011;5316;49.538;8.352;2023-08-17T02:16:21;6.97;;;6.00;;
10535;SDS011;5316;49.538;8.352;2023-08-17T02:18:48;7.30;;;5.83;;
10535;SDS011;5316;49.538;8.352;2023-08-17T02:21:15;6.10;;;5.50;;
10535;SDS011;5316;49.538;8.352;2023-08-17T02:23:43;5.73;;;5.23;;
10535;SDS011;5316;49.538;8.352;2023-08-17T02:26:10;5.60;;;5.10;;
10535;SDS011;5316;49.538;8.352;2023-08-17T02:28:37;5.20;;;4.80;;
10535;SDS011;5316;49.538;8.352;2023-08-17T02:31:06;5.60;;;5.17;;
10535;SDS011;5316;49.538;8.352;2023-08-17T02:33:32;5.03;;;4.63;;
10535;SDS011;5316;49.538;8.352;2023-08-17T02:36:02;4.63;;;4.17;;
10535;SDS011;5316;49.538;8.352;2023-08-17T02:38:29;5.83;;;5.33;;
10535;SDS011;5316;49.538;8.352;2023-08-17T02:40:56;12.43;;;11.13;;
10535;SDS011;5316;49.538;8.352;2023-08-17T02:43:23;4.93;;;4.53;;
10535;SDS011;5316;49.538;8.352;2023-08-17T02:45:50;5.83;;;4.13;;
10535;SDS011;5316;49.538;8.352;2023-08-17T02:48:18;4.40;;;4.07;;
10535;SDS011;5316;49.538;8.352;2023-08-17T02:50:45;4.40;;;4.00;;
10535;SDS011;5316;49.538;8.352;2023-08-17T02:53:12;3.83;;;3.53;;
10535;SDS011;5316;49.538;8.352;2023-08-17T02:55:38;3.27;;;3.07;;
10535;SDS011;5316;49.538;8.352;2023-08-17T02:58:05;3.10;;;2.90;;
10535;SDS011;5316;49.538;8.352;2023-08-17T03:00:32;3.90;;;3.60;;
10535;SDS011;5316;49.538;8.352;2023-08-17T03:02:59;4.33;;;3.27;;
10535;SDS011;5316;49.538;8.352;2023-08-17T03:05:27;2.90;;;2.63;;
10535;SDS011;5316;49.538;8.352;2023-08-17T03:07:54;2.97;;;2.70;;
10535;SDS011;5316;49.538;8.352;2023-08-17T03:10:21;3.50;;;3.20;;
10535;SDS011;5316;49.538;8.352;2023-08-17T03:12:50;4.43;;;3.00;;
10535;SDS011;5316;49.538;8.352;2023-08-17T03:15:16;4.20;;;2.70;;
10535;SDS011;5316;49.538;8.352;2023-08-17T03:17:43;3.67;;;3.03;;
10535;SDS011;5316;49.538;8.352;2023-08-17T03:20:10;3.10;;;2.90;;
10535;SDS011;5316;49.538;8.352;2023-08-17T03:22:38;5.40;;;3.23;;
10535;SDS011;5316;49.538;8.352;2023-08-17T03:25:06;3.77;;;3.40;;
10535;SDS011;5316;49.538;8.352;2023-08-17T03:27:33;3.30;;;3.00;;
10535;SDS011;5316;49.538;8.352;2023-08-17T03:30:00;4.47;;;3.37;;
10535;SDS011;5316;49.538;8.352;2023-08-17T03:32:27;4.57;;;3.27;;
10535;SDS011;5316;49.538;8.352;2023-08-17T03:34:54;3.93;;;3.60;;
10535;SDS011;5316;49.538;8.352;2023-08-17T03:37:21;5.37;;;3.50;;
10535;SDS011;5316;49.538;8.352;2023-08-17T03:39:49;3.93;;;3.20;;
10535;SDS011;5316;49.538;8.352;2023-08-17T03:42:16;3.03;;;2.83;;
10535;SDS011;5316;49.538;8.352;2023-08-17T03:44:43;2.93;;;2.73;;
10535;SDS011;5316;49.538;8.352;2023-08-17T03:47:09;3.43;;;3.13;;
10535;SDS011;5316;49.538;8.352;2023-08-17T03:49:36;4.73;;;3.13;;
10535;SDS011;5316;49.538;8.352;2023-08-17T03:52:03;3.57;;;3.27;;
10535;SDS011;5316;49.538;8.352;2023-08-17T03:54:31;4.10;;;2.63;;
10535;SDS011;5316;49.538;8.352;2023-08-17T03:56:59;3.83;;;3.17;;
10535;SDS011;5316;49.538;8.352;2023-08-17T03:59:26;4.70;;;3.43;;
10535;SDS011;5316;49.538;8.352;2023-08-17T04:01:53;4.37;;;3.97;;
10535;SDS011;5316;49.538;8.352;2023-08-17T04:04:19;5.47;;;4.33;;
10535;SDS011;5316;49.538;8.352;2023-08-17T04:06:47;5.73;;;4.47;;
10535;SDS011;5316;49.538;8.352;2023-08-17T04:09:13;5.53;;;5.03;;
10535;SDS011;5316;49.538;8.352;2023-08-17T04:11:40;6.97;;;6.23;;
10535;SDS011;5316;49.538;8.352;2023-08-17T04:14:08;9.23;;;6.20;;
10535;SDS011;5316;49.538;8.352;2023-08-17T04:16:35;10.80;;;8.07;;
10535;SDS011;5316;49.538;8.352;2023-08-17T04:19:02;10.30;;;8.00;;
10535;SDS011;5316;49.538;8.352;2023-08-17T04:21:29;13.30;;;9.57;;
10535;SDS011;5316;49.538;8.352;2023-08-17T04:23:56;14.20;;;10.73;;
10535;SDS011;5316;49.538;8.352;2023-08-17T04:26:23;15.30;;;10.87;;
10535;SDS011;5316;49.538;8.352;2023-08-17T04:28:50;16.77;;;11.37;;
10535;SDS011;5316;49.538;8.352;2023-08-17T04:31:18;16.83;;;11.53;;
10535;SDS011;5316;49.538;8.352;2023-08-17T04:33:45;21.50;;;12.73;;
10535;SDS011;5316;49.538;8.352;2023-08-17T04:36:12;20.00;;;13.03;;
10535;SDS011;5316;49.538;8.352;2023-08-17T04:38:39;20.90;;;12.93;;
10535;SDS011;5316;49.538;8.352;2023-08-17T04:41:05;24.07;;;14.73;;
10535;SDS011;5316;49.538;8.352;2023-08-17T04:43:32;20.73;;;12.10;;
10535;SDS011;5316;49.538;8.352;2023-08-17T04:46:05;25.30;;;14.77;;
10535;SDS011;5316;49.538;8.352;2023-08-17T04:48:33;28.20;;;16.73;;
10535;SDS011;5316;49.538;8.352;2023-08-17T04:51:00;26.47;;;16.57;;
10535;SDS011;5316;49.538;8.352;2023-08-17T04:53:27;28.07;;;17.67;;
10535;SDS011;5316;49.538;8.352;2023-08-17T04:55:55;27.33;;;18.37;;
10535;SDS011;5316;49.538;8.352;2023-08-17T04:58:22;31.30;;;20.20;;
10535;SDS011;5316;49.538;8.352;2023-08-17T05:00:49;35.63;;;20.53;;
10535;SDS011;5316;49.538;8.352;2023-08-17T05:03:15;30.07;;;21.00;;
10535;SDS011;5316;49.538;8.352;2023-08-17T05:05:43;31.47;;;19.73;;
10535;SDS011;5316;49.538;8.352;2023-08-17T05:08:10;29.40;;;20.07;;
10535;SDS011;5316;49.538;8.352;2023-08-17T05:10:39;28.00;;;19.73;;
10535;SDS011;5316;49.538;8.352;2023-08-17T05:13:05;34.37;;;21.17;;
10535;SDS011;5316;49.538;8.352;2023-08-17T05:15:32;28.57;;;20.30;;
10535;SDS011;5316;49.538;8.352;2023-08-17T05:17:59;30.50;;;20.67;;
10535;SDS011;5316;49.538;8.352;2023-08-17T05:20:25;33.00;;;21.10;;
10535;SDS011;5316;49.538;8.352;2023-08-17T05:22:53;37.20;;;22.93;;
10535;SDS011;5316;49.538;8.352;2023-08-17T05:25:20;40.23;;;23.37;;
10535;SDS011;5316;49.538;8.352;2023-08-17T05:27:47;33.67;;;21.17;;
10535;SDS011;5316;49.538;8.352;2023-08-17T05:30:15;33.87;;;22.70;;
10535;SDS011;5316;49.538;8.352;2023-08-17T05:32:42;36.30;;;22.10;;
10535;SDS011;5316;49.538;8.352;2023-08-17T05:37:38;30.47;;;20.67;;
10535;SDS011;5316;49.538;8.352;2023-08-17T05:40:07;35.10;;;23.47;;
10535;SDS011;5316;49.538;8.352;2023-08-17T05:42:36;36.30;;;23.20;;
10535;SDS011;5316;49.538;8.352;2023-08-17T05:45:03;35.57;;;23.10;;
10535;SDS011;5316;49.538;8.352;2023-08-17T05:47:31;34.10;;;23.47;;
10535;SDS011;5316;49.538;8.352;2023-08-17T05:49:58;34.37;;;24.30;;
10535;SDS011;5316;49.538;8.352;2023-08-17T05:52:24;36.00;;;24.03;;
10535;SDS011;5316;49.538;8.352;2023-08-17T05:54:51;37.33;;;23.77;;
10535;SDS011;5316;49.538;8.352;2023-08-17T05:57:19;35.63;;;25.17;;
10535;SDS011;5316;49.538;8.352;2023-08-17T05:59:46;34.60;;;23.03;;
10535;SDS011;5316;49.538;8.352;2023-08-17T06:02:12;34.10;;;24.40;;
10535;SDS011;5316;49.538;8.352;2023-08-17T06:04:42;33.43;;;23.10;;
10535;SDS011;5316;49.538;8.352;2023-08-17T06:07:09;34.00;;;25.63;;
10535;SDS011;5316;49.538;8.352;2023-08-17T06:09:35;33.87;;;25.50;;
10535;SDS011;5316;49.538;8.352;2023-08-17T06:12:02;32.77;;;24.97;;
10535;SDS011;5316;49.538;8.352;2023-08-17T06:14:31;31.47;;;23.77;;
10535;SDS011;5316;49.538;8.352;2023-08-17T06:16:59;29.23;;;22.77;;
10535;SDS011;5316;49.538;8.352;2023-08-17T06:19:26;30.83;;;23.77;;
10535;SDS011;5316;49.538;8.352;2023-08-17T06:21:53;31.07;;;22.90;;
10535;SDS011;5316;49.538;8.352;2023-08-17T06:24:20;30.83;;;24.03;;
10535;SDS011;5316;49.538;8.352;2023-08-17T06:26:48;26.60;;;22.33;;
10535;SDS011;5316;49.538;8.352;2023-08-17T06:29:15;28.93;;;23.33;;
10535;SDS011;5316;49.538;8.352;2023-08-17T06:31:43;28.23;;;22.27;;
10535;SDS011;5316;49.538;8.352;2023-08-17T06:34:11;26.77;;;21.17;;
10535;SDS011;5316;49.538;8.352;2023-08-17T06:36:38;25.50;;;21.00;;
10535;SDS011;5316;49.538;8.352;2023-08-17T06:39:07;23.13;;;20.52;;
10535;SDS011;5316;49.538;8.352;2023-08-17T06:44:42;23.38;;;19.58;;
10535;SDS011;5316;49.538;8.352;2023-08-17T06:47:11;22.77;;;18.90;;
10535;SDS011;5316;49.538;8.352;2023-08-17T06:49:39;23.30;;;20.57;;
10535;SDS011;5316;49.538;8.352;2023-08-17T06:52:06;21.63;;;19.33;;
10535;SDS011;5316;49.538;8.352;2023-08-17T06:54:33;22.43;;;20.20;;
10535;SDS011;5316;49.538;8.352;2023-08-17T06:57:00;23.83;;;20.30;;
10535;SDS011;5316;49.538;8.352;2023-08-17T06:59:28;21.87;;;19.03;;
10535;SDS011;5316;49.538;8.352;2023-08-17T07:01:56;21.53;;;19.27;;
10535;SDS011;5316;49.538;8.352;2023-08-17T07:04:28;20.00;;;17.90;;
10535;SDS011;5316;49.538;8.352;2023-08-17T07:06:54;20.70;;;18.23;;
10535;SDS011;5316;49.538;8.352;2023-08-17T07:09:22;20.00;;;17.67;;
10535;SDS011;5316;49.538;8.352;2023-08-17T07:11:50;29.07;;;25.83;;
10535;SDS011;5316;49.538;8.352;2023-08-17T07:14:17;20.37;;;16.97;;
10535;SDS011;5316;49.538;8.352;2023-08-17T07:16:44;18.73;;;16.80;;
10535;SDS011;5316;49.538;8.352;2023-08-17T07:19:11;18.83;;;16.83;;
10535;SDS011;5316;49.538;8.352;2023-08-17T07:21:42;19.07;;;17.17;;
10535;SDS011;5316;49.538;8.352;2023-08-17T07:24:15;20.43;;;18.43;;
10535;SDS011;5316;49.538;8.352;2023-08-17T07:26:42;17.88;;;16.00;;
10535;SDS011;5316;49.538;8.352;2023-08-17T07:29:09;18.87;;;16.90;;
10535;SDS011;5316;49.538;8.352;2023-08-17T07:31:37;17.80;;;16.02;;
10535;SDS011;5316;49.538;8.352;2023-08-17T07:34:05;18.08;;;16.17;;
10535;SDS011;5316;49.538;8.352;2023-08-17T07:36:33;17.02;;;15.32;;
10535;SDS011;5316;49.538;8.352;2023-08-17T07:39:01;14.73;;;13.27;;
10535;SDS011;5316;49.538;8.352;2023-08-17T07:47:26;13.68;;;12.35;;
10535;SDS011;5316;49.538;8.352;2023-08-17T07:49:53;14.05;;;12.25;;
10535;SDS011;5316;49.538;8.352;2023-08-17T07:52:22;13.63;;;12.23;;
10535;SDS011;5316;49.538;8.352;2023-08-17T07:55:11;14.02;;;12.82;;
10535;SDS011;5316;49.538;8.352;2023-08-17T07:57:38;13.30;;;12.07;;
10535;SDS011;5316;49.538;8.352;2023-08-17T08:00:05;14.98;;;13.57;;
10535;SDS011;5316;49.538;8.352;2023-08-17T08:05:29;15.65;;;14.15;;
10535;SDS011;5316;49.538;8.352;2023-08-17T08:07:56;14.75;;;13.27;;
10535;SDS011;5316;49.538;8.352;2023-08-17T08:10:25;16.42;;;14.80;;
10535;SDS011;5316;49.538;8.352;2023-08-17T08:12:52;16.40;;;14.70;;
10535;SDS011;5316;49.538;8.352;2023-08-17T08:15:30;14.75;;;13.38;;
10535;SDS011;5316;49.538;8.352;2023-08-17T08:18:07;14.27;;;12.77;;
10535;SDS011;5316;49.538;8.352;2023-08-17T08:20:35;12.30;;;11.20;;
10535;SDS011;5316;49.538;8.352;2023-08-17T08:23:09;10.77;;;9.68;;
10535;SDS011;5316;49.538;8.352;2023-08-17T08:25:48;8.80;;;8.10;;
10535;SDS011;5316;49.538;8.352;2023-08-17T08:28:15;9.33;;;8.60;;
10535;SDS011;5316;49.538;8.352;2023-08-17T08:51:27;8.38;;;7.70;;
10535;SDS011;5316;49.538;8.352;2023-08-17T08:53:59;8.88;;;8.02;;
10535;SDS011;5316;49.538;8.352;2023-08-17T10:55:34;7.30;;;6.72;;
10535;SDS011;5316;49.538;8.352;2023-08-17T10:58:03;5.93;;;5.43;;
10535;SDS011;5316;49.538;8.352;2023-08-17T11:00:33;7.50;;;6.38;;
10535;SDS011;5316;49.538;8.352;2023-08-17T11:03:06;6.45;;;6.05;;
10535;SDS011;5316;49.538;8.352;2023-08-17T11:05:36;6.60;;;6.20;;
10535;SDS011;5316;49.538;8.352;2023-08-17T11:08:08;6.35;;;5.95;;
10535;SDS011;5316;49.538;8.352;2023-08-17T11:18:02;4.70;;;4.43;;
10535;SDS011;5316;49.538;8.352;2023-08-17T11:21:16;6.38;;;5.97;;
10535;SDS011;5316;49.538;8.352;2023-08-17T11:28:40;6.55;;;6.05;;
10535;SDS011;5316;49.538;8.352;2023-08-17T11:32:05;5.60;;;5.20;;
10535;SDS011;5316;49.538;8.352;2023-08-17T11:48:01;4.45;;;4.15;;
10535;SDS011;5316;49.538;8.352;2023-08-17T11:50:57;4.60;;;4.20;;
10535;SDS011;5316;49.538;8.352;2023-08-17T11:54:13;4.78;;;4.38;;
10535;SDS011;5316;49.538;8.352;2023-08-17T11:57:37;4.75;;;4.55;;
10535;SDS011;5316;49.538;8.352;2023-08-17T12:00:54;3.92;;;3.72;;
10535;SDS011;5316;49.538;8.352;2023-08-17T12:19:40;3.90;;;3.60;;
10535;SDS011;5316;49.538;8.352;2023-08-17T12:22:09;5.00;;;4.55;;
10535;SDS011;5316;49.538;8.352;2023-08-17T12:24:57;3.63;;;3.33;;
10535;SDS011;5316;49.538;8.352;2023-08-17T12:31:31;3.53;;;3.25;;
10535;SDS011;5316;49.538;8.352;2023-08-17T12:41:28;3.33;;;2.67;;
10535;SDS011;5316;49.538;8.352;2023-08-17T12:43:56;2.88;;;2.67;;
10535;SDS011;5316;49.538;8.352;2023-08-17T12:46:26;3.03;;;2.78;;
10535;SDS011;5316;49.538;8.352;2023-08-17T12:48:59;2.97;;;2.88;;
10535;SDS011;5316;49.538;8.352;2023-08-17T12:51:48;2.97;;;2.83;;
10535;SDS011;5316;49.538;8.352;2023-08-17T12:54:25;3.30;;;3.10;;
10535;SDS011;5316;49.538;8.352;2023-08-17T12:57:24;3.75;;;3.30;;
10535;SDS011;5316;49.538;8.352;2023-08-17T13:00:01;3.45;;;3.28;;
10535;SDS011;5316;49.538;8.352;2023-08-17T13:02:44;3.40;;;3.17;;
10535;SDS011;5316;49.538;8.352;2023-08-17T13:05:14;3.33;;;3.10;;
10535;SDS011;5316;49.538;8.352;2023-08-17T13:07:41;4.07;;;3.65;;
10535;SDS011;5316;49.538;8.352;2023-08-17T13:10:09;3.85;;;3.65;;
10535;SDS011;5316;49.538;8.352;2023-08-17T13:12:38;4.05;;;3.85;;
10535;SDS011;5316;49.538;8.352;2023-08-17T13:15:06;3.78;;;3.50;;
10535;SDS011;5316;49.538;8.352;2023-08-17T13:17:36;4.00;;;3.80;;
10535;SDS011;5316;49.538;8.352;2023-08-17T13:20:04;4.05;;;3.78;;
10535;SDS011;5316;49.538;8.352;2023-08-17T13:22:34;3.72;;;3.53;;
10535;SDS011;5316;49.538;8.352;2023-08-17T13:25:02;3.33;;;3.13;;
10535;SDS011;5316;49.538;8.352;2023-08-17T13:27:31;3.67;;;3.42;;
10535;SDS011;5316;49.538;8.352;2023-08-17T13:30:03;6.65;;;5.88;;
10535;SDS011;5316;49.538;8.352;2023-08-17T13:32:31;4.90;;;4.20;;
10535;SDS011;5316;49.538;8.352;2023-08-17T13:35:00;4.70;;;4.40;;
10535;SDS011;5316;49.538;8.352;2023-08-17T13:37:29;4.85;;;3.58;;
10535;SDS011;5316;49.538;8.352;2023-08-17T13:39:56;3.35;;;3.25;;
10535;SDS011;5316;49.538;8.352;2023-08-17T13:42:23;3.53;;;3.33;;
10535;SDS011;5316;49.538;8.352;2023-08-17T13:44:50;4.00;;;3.60;;
10535;SDS011;5316;49.538;8.352;2023-08-17T13:47:18;3.92;;;3.63;;
10535;SDS011;5316;49.538;8.352;2023-08-17T13:49:45;3.58;;;3.22;;
10535;SDS011;5316;49.538;8.352;2023-08-17T13:52:12;3.60;;;3.30;;
10535;SDS011;5316;49.538;8.352;2023-08-17T13:54:41;3.40;;;3.10;;
10535;SDS011;5316;49.538;8.352;2023-08-17T13:57:08;3.92;;;3.55;;
10535;SDS011;5316;49.538;8.352;2023-08-17T13:59:34;3.90;;;3.60;;
10535;SDS011;5316;49.538;8.352;2023-08-17T14:02:01;3.40;;;3.10;;
10535;SDS011;5316;49.538;8.352;2023-08-17T14:04:29;3.03;;;2.83;;
10535;SDS011;5316;49.538;8.352;2023-08-17T14:06:56;2.75;;;2.55;;
10535;SDS011;5316;49.538;8.352;2023-08-17T14:09:23;4.18;;;3.58;;
10535;SDS011;5316;49.538;8.352;2023-08-17T14:11:50;2.70;;;2.60;;
10535;SDS011;5316;49.538;8.352;2023-08-17T14:14:17;2.55;;;2.10;;
10535;SDS011;5316;49.538;8.352;2023-08-17T14:16:44;2.00;;;1.90;;
10535;SDS011;5316;49.538;8.352;2023-08-17T14:19:11;2.58;;;2.38;;
10535;SDS011;5316;49.538;8.352;2023-08-17T14:21:39;2.45;;;2.25;;
10535;SDS011;5316;49.538;8.352;2023-08-17T14:24:09;2.33;;;2.00;;
10535;SDS011;5316;49.538;8.352;2023-08-17T14:26:40;2.20;;;2.00;;
10535;SDS011;5316;49.538;8.352;2023-08-17T14:29:07;2.40;;;2.20;;
10535;SDS011;5316;49.538;8.352;2023-08-17T14:31:34;1.90;;;1.80;;
10535;SDS011;5316;49.538;8.352;2023-08-17T14:34:01;2.10;;;2.00;;
10535;SDS011;5316;49.538;8.352;2023-08-17T14:36:27;1.83;;;1.73;;
10535;SDS011;5316;49.538;8.352;2023-08-17T14:38:56;2.20;;;1.77;;
10535;SDS011;5316;49.538;8.352;2023-08-17T14:41:22;1.83;;;1.73;;
10535;SDS011;5316;49.538;8.352;2023-08-17T14:43:58;2.25;;;1.95;;
10535;SDS011;5316;49.538;8.352;2023-08-17T14:46:24;1.88;;;1.77;;
10535;SDS011;5316;49.538;8.352;2023-08-17T14:48:54;1.98;;;1.73;;
10535;SDS011;5316;49.538;8.352;2023-08-17T14:51:21;3.65;;;1.90;;
10535;SDS011;5316;49.538;8.352;2023-08-17T14:53:48;4.97;;;1.90;;
10535;SDS011;5316;49.538;8.352;2023-08-17T14:56:16;2.95;;;1.70;;
10535;SDS011;5316;49.538;8.352;2023-08-17T14:58:43;2.42;;;1.95;;
10535;SDS011;5316;49.538;8.352;2023-08-17T15:01:09;2.22;;;1.80;;
10535;SDS011;5316;49.538;8.352;2023-08-17T15:03:37;2.00;;;1.80;;
10535;SDS011;5316;49.538;8.352;2023-08-17T15:06:05;2.03;;;1.88;;
10535;SDS011;5316;49.538;8.352;2023-08-17T15:08:34;1.67;;;1.58;;
10535;SDS011;5316;49.538;8.352;2023-08-17T15:11:01;1.75;;;1.65;;
10535;SDS011;5316;49.538;8.352;2023-08-17T15:13:32;3.80;;;1.60;;
10535;SDS011;5316;49.538;8.352;2023-08-17T15:15:59;2.10;;;2.00;;
10535;SDS011;5316;49.538;8.352;2023-08-17T15:18:26;1.80;;;1.70;;
10535;SDS011;5316;49.538;8.352;2023-08-17T15:20:53;1.92;;;1.50;;
10535;SDS011;5316;49.538;8.352;2023-08-17T15:23:20;1.90;;;1.60;;
10535;SDS011;5316;49.538;8.352;2023-08-17T15:25:46;1.90;;;1.70;;
10535;SDS011;5316;49.538;8.352;2023-08-17T15:28:13;3.25;;;2.17;;
10535;SDS011;5316;49.538;8.352;2023-08-17T15:30:41;2.35;;;2.15;;
10535;SDS011;5316;49.538;8.352;2023-08-17T15:33:08;1.80;;;1.63;;
10535;SDS011;5316;49.538;8.352;2023-08-17T15:35:35;1.50;;;1.40;;
10535;SDS011;5316;49.538;8.352;2023-08-17T15:38:02;1.70;;;1.40;;
10535;SDS011;5316;49.538;8.352;2023-08-17T15:40:29;2.30;;;1.30;;
10535;SDS011;5316;49.538;8.352;2023-08-17T15:42:56;1.45;;;1.35;;
10535;SDS011;5316;49.538;8.352;2023-08-17T15:45:23;1.73;;;1.35;;
10535;SDS011;5316;49.538;8.352;2023-08-17T15:47:51;1.50;;;1.40;;
10535;SDS011;5316;49.538;8.352;2023-08-17T15:50:20;1.52;;;1.40;;
10535;SDS011;5316;49.538;8.352;2023-08-17T15:52:47;1.58;;;1.40;;
10535;SDS011;5316;49.538;8.352;2023-08-17T15:55:16;1.40;;;1.20;;
10535;SDS011;5316;49.538;8.352;2023-08-17T15:57:43;1.88;;;1.67;;
10535;SDS011;5316;49.538;8.352;2023-08-17T16:00:10;2.13;;;1.58;;
10535;SDS011;5316;49.538;8.352;2023-08-17T16:02:38;1.95;;;1.40;;
10535;SDS011;5316;49.538;8.352;2023-08-17T16:05:06;1.40;;;1.30;;
10535;SDS011;5316;49.538;8.352;2023-08-17T16:07:33;1.38;;;1.20;;
10535;SDS011;5316;49.538;8.352;2023-08-17T16:10:00;1.10;;;1.10;;
10535;SDS011;5316;49.538;8.352;2023-08-17T16:12:28;2.58;;;1.40;;
10535;SDS011;5316;49.538;8.352;2023-08-17T16:14:55;1.50;;;1.40;;
10535;SDS011;5316;49.538;8.352;2023-08-17T16:17:24;1.60;;;1.50;;
10535;SDS011;5316;49.538;8.352;2023-08-17T16:19:53;1.30;;;1.20;;
10535;SDS011;5316;49.538;8.352;2023-08-17T16:22:28;2.60;;;1.23;;
10535;SDS011;5316;49.538;8.352;2023-08-17T16:24:58;1.30;;;1.20;;
10535;SDS011;5316;49.538;8.352;2023-08-17T16:27:27;1.50;;;1.38;;
10535;SDS011;5316;49.538;8.352;2023-08-17T16:29:57;3.17;;;1.40;;
10535;SDS011;5316;49.538;8.352;2023-08-17T16:32:24;1.50;;;1.40;;
10535;SDS011;5316;49.538;8.352;2023-08-17T16:34:51;1.58;;;1.30;;
10535;SDS011;5316;49.538;8.352;2023-08-17T16:37:20;1.77;;;1.67;;
10535;SDS011;5316;49.538;8.352;2023-08-17T16:39:48;1.40;;;1.30;;
10535;SDS011;5316;49.538;8.352;2023-08-17T16:42:18;2.20;;;2.00;;
10535;SDS011;5316;49.538;8.352;2023-08-17T16:44:50;1.90;;;1.80;;
10535;SDS011;5316;49.538;8.352;2023-08-17T16:47:17;5.57;;;3.65;;
10535;SDS011;5316;49.538;8.352;2023-08-17T16:49:45;3.40;;;3.10;;
10535;SDS011;5316;49.538;8.352;2023-08-17T16:52:12;2.20;;;2.10;;
10535;SDS011;5316;49.538;8.352;2023-08-17T16:54:43;2.80;;;2.60;;
10535;SDS011;5316;49.538;8.352;2023-08-17T16:57:16;2.33;;;2.22;;
10535;SDS011;5316;49.538;8.352;2023-08-17T16:59:53;1.52;;;1.40;;
10535;SDS011;5316;49.538;8.352;2023-08-17T17:02:33;2.60;;;2.40;;
10535;SDS011;5316;49.538;8.352;2023-08-17T19:26:11;3.72;;;2.30;;
10535;SDS011;5316;49.538;8.352;2023-08-17T19:28:44;2.55;;;2.20;;
10535;SDS011;5316;49.538;8.352;2023-08-17T19:31:27;3.05;;;2.90;;
10535;SDS011;5316;49.538;8.352;2023-08-17T19:34:10;3.30;;;2.65;;
10535;SDS011;5316;49.538;8.352;2023-08-17T19:36:46;2.88;;;2.60;;
10535;SDS011;5316;49.538;8.352;2023-08-17T19:39:21;2.97;;;2.63;;
10535;SDS011;5316;49.538;8.352;2023-08-17T19:42:35;3.22;;;2.90;;
10535;SDS011;5316;49.538;8.352;2023-08-17T19:45:09;2.85;;;2.60;;
10535;SDS011;5316;49.538;8.352;2023-08-17T19:47:58;2.95;;;2.75;;
10535;SDS011;5316;49.538;8.352;2023-08-17T19:50:46;2.70;;;2.50;;
10535;SDS011;5316;49.538;8.352;2023-08-17T19:53:25;3.83;;;2.92;;
10535;SDS011;5316;49.538;8.352;2023-08-17T19:55:58;2.88;;;2.67;;
10535;SDS011;5316;49.538;8.352;2023-08-17T19:58:36;2.95;;;2.75;;
10535;SDS011;5316;49.538;8.352;2023-08-17T20:01:15;2.65;;;2.45;;
10535;SDS011;5316;49.538;8.352;2023-08-17T20:07:42;2.78;;;2.67;;
10535;SDS011;5316;49.538;8.352;2023-08-17T20:14:10;3.10;;;2.70;;
10535;SDS011;5316;49.538;8.352;2023-08-17T20:16:37;3.13;;;2.92;;
10535;SDS011;5316;49.538;8.352;2023-08-17T20:19:14;4.28;;;2.45;;
10535;SDS011;5316;49.538;8.352;2023-08-17T20:21:41;2.65;;;2.45;;
10535;SDS011;5316;49.538;8.352;2023-08-17T20:24:09;4.20;;;2.92;;
10535;SDS011;5316;49.538;8.352;2023-08-17T20:26:36;3.22;;;2.85;;
10535;SDS011;5316;49.538;8.352;2023-08-17T20:29:07;2.70;;;2.60;;
10535;SDS011;5316;49.538;8.352;2023-08-17T20:31:37;2.90;;;2.70;;
10535;SDS011;5316;49.538;8.352;2023-08-17T20:34:05;2.35;;;2.25;;
10535;SDS011;5316;49.538;8.352;2023-08-17T20:36:32;2.80;;;2.60;;
10535;SDS011;5316;49.538;8.352;2023-08-17T20:39:04;2.97;;;2.70;;
10535;SDS011;5316;49.538;8.352;2023-08-17T20:41:37;2.65;;;2.55;;
10535;SDS011;5316;49.538;8.352;2023-08-17T20:44:06;3.00;;;2.70;;
10535;SDS011;5316;49.538;8.352;2023-08-17T20:46:37;2.97;;;2.78;;
10535;SDS011;5316;49.538;8.352;2023-08-17T20:49:05;3.28;;;3.03;;
10535;SDS011;5316;49.538;8.352;2023-08-17T20:51:33;3.00;;;2.80;;
10535;SDS011;5316;49.538;8.352;2023-08-17T20:53:59;2.70;;;2.60;;
10535;SDS011;5316;49.538;8.352;2023-08-17T20:56:27;3.10;;;2.50;;
10535;SDS011;5316;49.538;8.352;2023-08-17T20:58:57;4.38;;;2.92;;
10535;SDS011;5316;49.538;8.352;2023-08-17T21:01:24;20.85;;;18.83;;
10535;SDS011;5316;49.538;8.352;2023-08-17T21:03:53;6.40;;;5.57;;
10535;SDS011;5316;49.538;8.352;2023-08-17T21:06:20;2.95;;;2.75;;